Time;durP1;ratioP1;P1;durP2;ratioP2;P2;SDS_P1;SDS_P2;PMS_P1;PMS_P2;Temp;Humidity;BMP_temperature;BMP_pressure;BME280_temperature;BME280_humidity;BME280_pressure;Samples;Min_cycle;Max_cycle;Signal;HPM_P1;HPM_P2
2022/04/29 01:08:44;;;;;;;6.43;2.80;;;23.00;84.90;;;;;;5039546;27;20413;-54
2022/04/29 01:14:13;;;;;;;3.88;2.58;;;23.70;82.30;;;;;;5093036;27;20385;-70
2022/04/29 01:16:41;;;;;;;5.72;2.40;;;24.70;81.60;;;;;;5089686;28;20058;-68
2022/04/29 01:19:08;;;;;;;4.60;2.15;;;24.80;80.20;;;;;;5086647;28;20036;-68
2022/04/29 01:21:35;;;;;;;4.40;2.08;;;24.70;78.60;;;;;;5100576;28;20020;-69
2022/04/29 01:27:41;;;;;;;2.85;2.03;;;24.60;78.50;;;;;;5088533;27;20389;-70
2022/04/29 01:30:13;;;;;;;2.90;1.70;;;24.80;78.90;;;;;;5100297;28;20380;-68
2022/04/29 01:32:41;;;;;;;3.40;1.88;;;24.80;78.60;;;;;;5076647;28;20024;-68
2022/04/29 01:35:09;;;;;;;3.78;2.00;;;24.90;77.50;;;;;;5092732;28;20488;-67
2022/04/29 01:37:37;;;;;;;4.35;1.95;;;24.90;78.10;;;;;;5085075;28;20050;-67
2022/04/29 01:40:05;;;;;;;4.03;1.70;;;24.90;78.50;;;;;;5092090;28;20095;-70
2022/04/29 01:42:33;;;;;;;3.17;2.35;;;25.10;79.30;;;;;;5095194;28;20017;-70
2022/04/29 01:45:00;;;;;;;2.83;2.03;;;25.20;77.30;;;;;;5081681;28;20362;-69
2022/04/29 01:47:27;;;;;;;3.42;2.00;;;25.30;75.80;;;;;;5074698;28;20032;-69
2022/04/29 01:49:54;;;;;;;4.47;2.05;;;25.20;76.40;;;;;;5083452;28;20016;-70
2022/04/29 01:52:22;;;;;;;4.03;2.40;;;25.30;75.70;;;;;;5085664;28;20024;-70
2022/04/29 01:54:49;;;;;;;4.25;2.30;;;25.20;75.80;;;;;;5084065;28;20024;-68
2022/04/29 01:57:16;;;;;;;5.45;2.33;;;25.30;76.80;;;;;;5079998;28;20115;-69
2022/04/29 01:59:43;;;;;;;4.15;1.67;;;25.20;75.80;;;;;;5102302;28;20032;-69
2022/04/29 02:02:11;;;;;;;4.18;2.42;;;25.10;77.10;;;;;;5092328;28;20016;-69
2022/04/29 02:04:38;;;;;;;2.83;2.03;;;25.10;76.10;;;;;;5093517;28;20028;-69
2022/04/29 02:07:06;;;;;;;4.38;1.88;;;25.10;75.80;;;;;;5112466;28;20037;-68
2022/04/29 02:09:33;;;;;;;5.97;1.85;;;25.20;77.10;;;;;;5108254;28;20028;-69
2022/04/29 02:12:06;;;;;;;4.13;2.03;;;25.20;77.20;;;;;;5109484;28;20031;-69
2022/04/29 02:14:39;;;;;;;4.30;2.42;;;25.20;76.80;;;;;;5098457;28;20038;-69
2022/04/29 02:17:07;;;;;;;4.07;2.17;;;25.40;76.40;;;;;;5119262;28;20036;-69
2022/04/29 02:19:34;;;;;;;4.13;2.08;;;25.30;76.50;;;;;;5108165;27;20024;-70
2022/04/29 02:22:02;;;;;;;2.88;2.20;;;25.30;76.90;;;;;;5103603;28;20023;-70
2022/04/29 02:24:30;;;;;;;2.90;2.28;;;25.10;77.10;;;;;;5115661;27;20027;-68
2022/04/29 02:26:59;;;;;;;5.68;2.60;;;25.10;76.90;;;;;;5109217;28;20047;-68
2022/04/29 02:29:29;;;;;;;4.97;2.35;;;25.10;77.10;;;;;;5113872;28;20075;-69
2022/04/29 02:31:57;;;;;;;3.88;2.90;;;25.10;77.70;;;;;;5108084;28;20027;-68
2022/04/29 02:34:24;;;;;;;5.30;2.30;;;25.10;77.10;;;;;;5105063;28;20055;-66
2022/04/29 02:36:51;;;;;;;5.15;2.47;;;25.20;77.70;;;;;;5107669;28;20389;-66
2022/04/29 02:39:19;;;;;;;3.90;2.28;;;25.50;78.30;;;;;;5100849;28;20035;-68
2022/04/29 02:41:46;;;;;;;4.35;2.05;;;25.90;77.10;;;;;;5104638;28;20111;-67
2022/04/29 02:44:13;;;;;;;2.95;1.90;;;26.10;76.30;;;;;;5088914;28;20028;-66
2022/04/29 02:47:06;;;;;;;4.03;1.83;;;26.10;74.10;;;;;;5088174;28;20032;-66
2022/04/29 02:49:28;;;;;;;3.97;2.00;;;25.90;76.50;;;;;;5092314;28;20043;-67
2022/04/29 02:51:55;;;;;;;4.30;2.00;;;25.90;74.70;;;;;;5104254;28;20067;-67
2022/04/29 02:54:23;;;;;;;3.97;2.50;;;25.80;76.40;;;;;;5083332;28;20028;-67
2022/04/29 02:56:50;;;;;;;4.35;2.17;;;25.80;76.70;;;;;;5087798;28;20500;-67
2022/04/29 02:59:21;;;;;;;2.83;1.90;;;25.80;76.20;;;;;;5092973;28;20055;-66
2022/04/29 03:01:48;;;;;;;3.97;2.25;;;25.80;78.30;;;;;;5093314;28;20030;-67
2022/04/29 03:04:16;;;;;;;3.67;1.80;;;25.90;75.90;;;;;;5100224;28;20044;-67
2022/04/29 03:06:43;;;;;;;3.80;1.60;;;25.90;76.20;;;;;;5096015;28;20059;-68
2022/04/29 03:09:10;;;;;;;4.30;2.08;;;26.00;76.40;;;;;;5099267;28;20419;-67
2022/04/29 03:11:38;;;;;;;3.53;1.90;;;25.90;76.20;;;;;;5108513;28;20100;-67
2022/04/29 03:14:05;;;;;;;6.40;1.77;;;26.00;76.00;;;;;;5090769;28;20028;-67
2022/04/29 03:16:33;;;;;;;3.60;1.98;;;26.00;75.30;;;;;;5097611;28;20031;-67
2022/04/29 03:19:00;;;;;;;4.45;1.88;;;26.20;77.00;;;;;;5099272;28;20016;-67
2022/04/29 03:21:27;;;;;;;3.15;2.10;;;26.30;74.10;;;;;;5096120;28;20584;-67
2022/04/29 03:23:55;;;;;;;3.40;1.80;;;26.40;75.50;;;;;;5093157;28;20084;-67
2022/04/29 03:26:22;;;;;;;5.35;1.67;;;26.50;74.80;;;;;;5103369;27;20036;-67
2022/04/29 03:28:49;;;;;;;2.90;1.85;;;26.60;75.10;;;;;;5083480;28;20032;-67
2022/04/29 03:31:16;;;;;;;4.05;1.85;;;26.70;74.90;;;;;;5091658;28;20021;-67
2022/04/29 03:33:44;;;;;;;8.77;2.25;;;26.80;74.30;;;;;;5085957;28;20111;-67
2022/04/29 03:36:11;;;;;;;4.22;1.80;;;26.90;73.00;;;;;;5083815;28;20384;-67
2022/04/29 03:38:38;;;;;;;3.28;1.70;;;27.00;72.10;;;;;;5078924;28;20700;-67
2022/04/29 03:41:05;;;;;;;2.63;1.90;;;27.00;73.10;;;;;;5085252;28;20031;-68
2022/04/29 03:43:32;;;;;;;6.07;2.20;;;27.10;72.00;;;;;;5097171;28;20028;-67
2022/04/29 03:46:00;;;;;;;2.70;1.85;;;27.10;73.80;;;;;;5099780;28;20082;-67
2022/04/29 03:48:27;;;;;;;3.17;1.88;;;27.20;71.80;;;;;;5100777;28;20099;-67
2022/04/29 03:50:54;;;;;;;4.75;2.30;;;27.10;70.10;;;;;;5096731;28;20031;-67
2022/04/29 03:53:24;;;;;;;6.88;2.35;;;27.10;69.90;;;;;;5091102;28;20020;-67
2022/04/29 03:55:51;;;;;;;4.22;2.50;;;27.20;70.80;;;;;;5087033;28;20016;-67
2022/04/29 03:58:19;;;;;;;3.47;2.30;;;27.20;70.30;;;;;;5089199;28;20480;-68
2022/04/29 04:00:46;;;;;;;5.57;2.40;;;27.20;70.30;;;;;;5084662;28;20032;-67
2022/04/29 04:03:14;;;;;;;4.20;2.60;;;27.20;70.50;;;;;;5103247;28;20114;-68
2022/04/29 04:06:49;;;;;;;4.82;2.63;;;27.00;69.10;;;;;;5092296;28;20039;-68
2022/04/29 04:08:28;;;;;;;3.40;2.50;;;26.90;70.20;;;;;;5102177;28;20059;-68
2022/04/29 04:10:55;;;;;;;5.47;2.35;;;27.00;71.20;;;;;;5093147;28;20498;-67
2022/04/29 04:13:22;;;;;;;3.33;2.53;;;26.90;71.30;;;;;;5090858;28;20028;-68
2022/04/29 04:15:49;;;;;;;4.03;2.55;;;27.10;70.80;;;;;;5098253;28;20073;-68
2022/04/29 04:18:16;;;;;;;5.40;3.53;;;27.20;70.70;;;;;;5087081;28;20024;-68
2022/04/29 04:20:43;;;;;;;4.28;2.15;;;27.20;70.00;;;;;;5089526;28;20028;-67
2022/04/29 04:23:11;;;;;;;6.20;2.30;;;27.20;68.40;;;;;;5087112;28;20031;-68
2022/04/29 04:25:38;;;;;;;5.70;2.85;;;27.20;67.90;;;;;;5092984;28;20092;-67
2022/04/29 04:28:05;;;;;;;2.92;2.35;;;27.10;68.40;;;;;;5088658;28;20016;-67
2022/04/29 04:30:32;;;;;;;4.47;2.33;;;27.10;70.50;;;;;;5086616;28;20020;-67
2022/04/29 04:32:59;;;;;;;3.20;2.10;;;27.10;68.20;;;;;;5101584;28;20024;-67
2022/04/29 04:35:28;;;;;;;3.65;2.45;;;27.20;69.50;;;;;;5081688;28;20545;-67
2022/04/29 04:37:55;;;;;;;4.75;2.50;;;27.20;68.00;;;;;;5082918;28;20028;-67
2022/04/29 04:40:22;;;;;;;3.83;2.10;;;27.20;68.70;;;;;;5086332;28;20020;-67
2022/04/29 04:42:49;;;;;;;2.90;2.30;;;27.20;69.10;;;;;;5084236;28;20028;-68
2022/04/29 04:45:17;;;;;;;5.57;3.00;;;27.20;69.30;;;;;;5090700;28;20051;-69
2022/04/29 04:47:44;;;;;;;4.93;2.97;;;27.30;69.10;;;;;;5086408;28;20032;-68
2022/04/29 04:50:11;;;;;;;3.25;2.60;;;27.20;68.80;;;;;;5100044;28;20037;-67
2022/04/29 04:52:42;;;;;;;6.55;2.65;;;27.20;68.90;;;;;;5101211;28;20474;-67
2022/04/29 04:55:10;;;;;;;4.97;2.53;;;27.20;68.60;;;;;;5085882;28;20024;-68
2022/04/29 04:57:37;;;;;;;3.53;2.60;;;27.20;68.00;;;;;;5090660;28;20081;-66
2022/04/29 05:00:05;;;;;;;4.95;2.92;;;27.20;69.10;;;;;;5089382;28;20157;-68
2022/04/29 05:02:32;;;;;;;4.05;2.25;;;27.10;68.40;;;;;;5071223;28;20028;-68
2022/04/29 05:04:59;;;;;;;3.00;2.50;;;27.10;69.20;;;;;;5080411;28;20488;-68
2022/04/29 05:07:26;;;;;;;7.07;3.30;;;27.00;69.60;;;;;;5085934;28;20075;-68
2022/04/29 05:09:54;;;;;;;9.82;2.63;;;27.00;69.50;;;;;;5104000;28;20020;-68
2022/04/29 05:12:21;;;;;;;5.07;2.58;;;27.00;68.70;;;;;;5083522;28;20049;-68
2022/04/29 05:14:48;;;;;;;4.57;2.42;;;26.90;69.40;;;;;;5090176;28;20027;-68
2022/04/29 05:17:15;;;;;;;2.92;1.88;;;26.80;69.70;;;;;;5089902;28;20031;-68
2022/04/29 05:19:43;;;;;;;3.05;1.92;;;26.80;70.00;;;;;;5096891;28;20028;-68
2022/04/29 05:22:10;;;;;;;5.47;1.70;;;26.70;70.10;;;;;;5101387;28;20024;-68
2022/04/29 05:24:37;;;;;;;5.82;2.05;;;26.60;69.40;;;;;;5083400;28;20020;-67
2022/04/29 05:27:04;;;;;;;3.20;1.88;;;26.50;69.80;;;;;;5081206;28;21359;-69
2022/04/29 05:29:32;;;;;;;5.35;2.10;;;26.40;69.90;;;;;;5088476;28;20130;-69
2022/04/29 05:31:59;;;;;;;3.42;2.30;;;26.40;70.20;;;;;;5089068;28;20133;-69
2022/04/29 05:34:26;;;;;;;2.60;1.70;;;26.30;69.30;;;;;;5097175;28;20019;-69
2022/04/29 05:36:53;;;;;;;2.85;1.80;;;26.30;70.00;;;;;;5091268;28;20022;-69
2022/04/29 05:42:15;;;;;;;5.07;1.65;;;26.20;70.30;;;;;;5076800;28;20030;-67
2022/04/29 05:44:42;;;;;;;7.15;2.88;;;26.10;71.80;;;;;;5084494;28;20081;-67
2022/04/29 05:47:10;;;;;;;4.70;2.00;;;26.10;71.60;;;;;;5088132;28;20043;-66
2022/04/29 05:49:37;;;;;;;7.30;1.55;;;25.90;73.10;;;;;;5078950;28;20024;-67
2022/04/29 05:52:05;;;;;;;6.53;1.67;;;25.90;72.60;;;;;;5085665;28;20027;-68
2022/04/29 05:54:32;;;;;;;6.85;1.58;;;25.80;71.90;;;;;;5098354;28;20016;-67
2022/04/29 05:57:00;;;;;;;3.25;1.08;;;25.80;71.70;;;;;;5091706;28;20084;-67
2022/04/29 05:59:27;;;;;;;3.75;1.40;;;25.80;72.60;;;;;;5083480;28;20616;-66
2022/04/29 06:01:54;;;;;;;6.18;1.88;;;25.70;72.60;;;;;;5087508;28;20390;-68
2022/04/29 06:04:22;;;;;;;2.63;1.02;;;25.70;72.50;;;;;;5094432;28;20030;-67
2022/04/29 06:06:49;;;;;;;2.58;1.42;;;25.70;72.80;;;;;;5077347;28;20047;-67
2022/04/29 06:09:16;;;;;;;4.70;1.30;;;25.70;72.50;;;;;;5096553;28;20024;-67
2022/04/29 06:11:45;;;;;;;1.73;0.98;;;25.60;72.80;;;;;;5082274;28;20073;-67
2022/04/29 06:14:12;;;;;;;4.57;1.55;;;25.60;72.20;;;;;;5069688;28;20024;-66
2022/04/29 06:16:39;;;;;;;1.60;1.10;;;25.40;72.90;;;;;;5087784;28;20420;-65
2022/04/29 06:19:07;;;;;;;7.43;1.25;;;25.40;73.30;;;;;;5094161;28;20028;-67
2022/04/29 06:21:34;;;;;;;4.43;1.50;;;25.30;73.90;;;;;;5093314;28;20032;-68
2022/04/29 06:24:01;;;;;;;4.32;1.73;;;25.30;75.00;;;;;;5068398;28;20035;-69
2022/04/29 06:26:28;;;;;;;2.75;1.33;;;25.20;74.40;;;;;;5079995;28;20185;-69
2022/04/29 06:28:55;;;;;;;1.95;1.38;;;25.10;74.30;;;;;;5081222;28;20036;-68
2022/04/29 06:31:23;;;;;;;3.17;1.33;;;25.10;74.90;;;;;;5091680;28;20471;-68
2022/04/29 06:33:50;;;;;;;2.80;1.20;;;25.00;75.20;;;;;;5098232;28;20020;-69
2022/04/29 06:36:17;;;;;;;2.60;1.30;;;25.00;74.90;;;;;;5087715;28;20027;-68
2022/04/29 06:38:44;;;;;;;6.32;1.55;;;25.00;75.00;;;;;;5086445;28;20024;-69
2022/04/29 06:41:11;;;;;;;4.10;1.30;;;24.80;75.40;;;;;;5084294;28;20024;-68
2022/04/29 06:43:38;;;;;;;3.60;1.60;;;24.80;75.60;;;;;;5100371;28;20058;-69
2022/04/29 06:46:06;;;;;;;2.30;1.17;;;24.70;75.80;;;;;;5106091;28;20369;-68
2022/04/29 06:48:33;;;;;;;2.50;1.50;;;24.70;76.50;;;;;;5104559;28;20646;-68
2022/04/29 06:51:00;;;;;;;5.30;1.38;;;24.60;76.50;;;;;;5099017;28;20428;-68
2022/04/29 06:53:27;;;;;;;2.45;1.60;;;24.50;76.70;;;;;;5087519;28;20507;-68
2022/04/29 06:55:55;;;;;;;2.17;1.40;;;24.30;77.20;;;;;;5095930;28;20055;-67
2022/04/29 06:58:22;;;;;;;3.65;1.30;;;24.20;77.70;;;;;;5092083;28;20020;-69
2022/04/29 07:00:49;;;;;;;2.28;1.58;;;24.10;78.20;;;;;;5088690;28;20140;-68
2022/04/29 07:03:16;;;;;;;2.47;1.40;;;24.00;78.60;;;;;;5093298;28;20089;-67
2022/04/29 07:05:43;;;;;;;3.33;1.40;;;23.90;79.20;;;;;;5099475;28;20028;-67
2022/04/29 07:08:12;;;;;;;3.05;1.58;;;23.80;79.40;;;;;;5096973;28;20049;-68
2022/04/29 07:10:40;;;;;;;4.63;1.63;;;23.70;80.10;;;;;;5086177;28;20243;-67
2022/04/29 07:13:07;;;;;;;3.00;1.70;;;23.60;80.50;;;;;;5086395;28;20028;-66
2022/04/29 07:15:34;;;;;;;5.75;1.80;;;23.50;81.80;;;;;;5100195;28;20028;-68
2022/04/29 07:18:01;;;;;;;4.80;1.67;;;23.40;81.00;;;;;;5090109;28;20028;-68
2022/04/29 07:20:28;;;;;;;2.60;1.50;;;23.40;81.20;;;;;;5086379;28;20035;-68
2022/04/29 07:22:55;;;;;;;3.30;1.52;;;23.30;81.30;;;;;;5082163;28;20042;-68
2022/04/29 07:25:23;;;;;;;2.30;1.60;;;23.30;81.60;;;;;;5101939;28;20028;-69
2022/04/29 07:27:50;;;;;;;4.20;2.00;;;23.20;82.10;;;;;;5093494;28;20024;-67
2022/04/29 07:30:17;;;;;;;2.40;1.52;;;23.10;82.50;;;;;;5098050;28;20099;-67
2022/04/29 07:32:44;;;;;;;2.25;1.40;;;23.10;82.70;;;;;;5099366;28;20032;-67
2022/04/29 07:43:27;;;;;;;3.00;1.65;;;22.90;83.60;;;;;;5094978;28;20054;-66
2022/04/29 07:45:55;;;;;;;4.22;1.75;;;22.90;83.40;;;;;;5107599;27;20475;-67
2022/04/29 07:48:22;;;;;;;4.60;1.80;;;23.00;83.60;;;;;;5098761;28;20103;-62
2022/04/29 07:50:50;;;;;;;4.00;1.90;;;22.90;83.90;;;;;;5103654;28;20089;-66
2022/04/29 07:53:17;;;;;;;5.20;2.42;;;22.90;83.80;;;;;;5095585;28;20024;-66
2022/04/29 07:55:44;;;;;;;4.90;1.98;;;22.80;83.80;;;;;;5098935;28;20023;-66
2022/04/29 07:58:12;;;;;;;4.45;2.00;;;22.80;84.40;;;;;;5103677;28;20482;-67
2022/04/29 08:00:40;;;;;;;7.82;2.88;;;22.70;84.60;;;;;;5099447;28;20035;-66
2022/04/29 08:03:07;;;;;;;10.88;3.53;;;22.60;85.20;;;;;;5090364;28;20028;-66
2022/04/29 08:05:34;;;;;;;5.57;2.63;;;22.40;85.60;;;;;;5095602;28;20023;-66
2022/04/29 08:08:01;;;;;;;5.25;2.53;;;22.30;86.10;;;;;;5092775;28;20186;-66
2022/04/29 08:10:33;;;;;;;7.43;2.00;;;22.30;86.80;;;;;;5103147;28;20028;-66
2022/04/29 08:13:00;;;;;;;7.00;2.40;;;22.30;86.30;;;;;;5076047;28;20032;-65
2022/04/29 08:15:28;;;;;;;4.47;2.38;;;22.30;86.70;;;;;;5093322;28;20028;-66
2022/04/29 08:17:55;;;;;;;5.50;2.08;;;22.30;87.00;;;;;;5093204;28;20024;-66
2022/04/29 08:20:22;;;;;;;3.85;2.20;;;22.20;87.10;;;;;;5091533;28;20024;-67
2022/04/29 08:22:49;;;;;;;5.85;2.20;;;22.20;87.80;;;;;;5088555;28;20039;-66
2022/04/29 08:25:20;;;;;;;4.15;2.35;;;22.10;87.30;;;;;;5089610;28;20016;-66
2022/04/29 08:27:50;;;;;;;3.80;2.10;;;22.10;87.40;;;;;;5104491;28;20032;-66
2022/04/29 08:30:17;;;;;;;7.57;2.30;;;22.00;87.70;;;;;;5087155;28;20480;-65
2022/04/29 08:32:45;;;;;;;5.40;2.65;;;21.80;87.90;;;;;;5099011;28;20031;-65
2022/04/29 08:35:13;;;;;;;14.05;2.90;;;21.70;89.10;;;;;;5092912;28;20094;-65
2022/04/29 08:37:41;;;;;;;4.80;2.67;;;21.60;89.10;;;;;;5086872;28;20032;-66
2022/04/29 08:40:09;;;;;;;7.78;2.42;;;21.60;89.60;;;;;;5088948;28;20035;-66
2022/04/29 08:42:37;;;;;;;6.68;3.13;;;21.60;89.70;;;;;;5084116;28;20021;-65
2022/04/29 08:45:17;;;;;;;6.85;3.33;;;21.70;89.80;;;;;;5084561;28;20388;-65
2022/04/29 08:47:45;;;;;;;6.65;2.78;;;21.70;89.40;;;;;;5086320;28;20036;-67
2022/04/29 08:50:19;;;;;;;5.00;2.95;;;21.70;89.80;;;;;;5082690;28;20441;-66
2022/04/29 08:52:47;;;;;;;6.93;3.00;;;21.70;89.60;;;;;;5090458;28;20484;-66
2022/04/29 09:00:45;;;;;;;4.93;2.75;;;21.70;89.80;;;;;;5080302;28;20067;-63
2022/04/29 09:03:23;;;;;;;4.63;2.42;;;21.60;89.60;;;;;;5087647;28;20465;-65
2022/04/29 09:05:51;;;;;;;6.97;2.90;;;21.60;89.70;;;;;;5082247;28;20369;-67
2022/04/29 09:08:22;;;;;;;5.20;2.60;;;21.60;89.50;;;;;;5083145;28;20024;-67
2022/04/29 09:10:52;;;;;;;5.25;2.50;;;21.60;89.70;;;;;;5079450;28;20362;-65
2022/04/29 09:13:24;;;;;;;5.03;2.33;;;21.50;90.00;;;;;;5084989;28;20397;-67
2022/04/29 09:15:51;;;;;;;6.47;2.40;;;21.40;90.00;;;;;;5079630;28;20031;-67
2022/04/29 09:18:39;;;;;;;5.28;2.40;;;21.30;90.30;;;;;;5086067;28;20066;-65
2022/04/29 09:21:09;;;;;;;4.85;2.17;;;21.20;90.40;;;;;;5085408;28;20107;-67
2022/04/29 09:23:37;;;;;;;3.88;2.50;;;21.20;90.60;;;;;;5091955;28;20020;-65
2022/04/29 09:26:06;;;;;;;4.47;2.28;;;21.20;90.60;;;;;;5087854;28;20089;-67
2022/04/29 09:28:34;;;;;;;4.50;2.10;;;21.20;90.60;;;;;;5083040;28;20042;-67
2022/04/29 09:31:02;;;;;;;4.07;2.45;;;21.10;90.80;;;;;;5083592;28;20028;-66
2022/04/29 09:33:29;;;;;;;3.78;2.22;;;21.10;90.90;;;;;;5078266;28;20721;-65
2022/04/29 09:35:57;;;;;;;6.07;2.97;;;21.00;90.80;;;;;;5084535;28;20024;-65
2022/04/29 09:41:09;;;;;;;4.78;2.47;;;20.80;91.30;;;;;;5093856;28;20034;-67
2022/04/29 09:43:37;;;;;;;4.85;3.20;;;20.70;91.40;;;;;;5085307;28;20025;-66
2022/04/29 09:46:20;;;;;;;5.72;3.55;;;20.70;91.60;;;;;;5091303;28;20060;-67
2022/04/29 09:48:58;;;;;;;6.60;3.03;;;20.60;91.70;;;;;;5087737;28;20496;-67
2022/04/29 09:51:49;;;;;;;4.95;2.92;;;20.60;91.90;;;;;;5085846;28;20063;-62
2022/04/29 09:54:19;;;;;;;6.32;3.42;;;20.50;92.10;;;;;;5083692;28;20530;-63
2022/04/29 09:57:04;;;;;;;6.80;3.63;;;20.40;92.10;;;;;;5082495;28;20119;-63
2022/04/29 09:59:33;;;;;;;7.03;2.83;;;20.40;92.30;;;;;;5088784;28;20020;-62
2022/04/29 10:02:01;;;;;;;5.70;3.10;;;20.40;92.60;;;;;;5087083;28;20028;-62
2022/04/29 10:04:31;;;;;;;11.27;3.75;;;20.40;92.70;;;;;;5082047;28;20052;-64
2022/04/29 10:06:58;;;;;;;7.97;3.30;;;20.40;92.70;;;;;;5086830;28;20043;-63
2022/04/29 10:09:27;;;;;;;7.57;3.33;;;20.40;92.80;;;;;;5084888;28;20795;-63
2022/04/29 10:11:56;;;;;;;5.65;2.90;;;20.40;92.80;;;;;;5080353;28;20698;-61
2022/04/29 10:14:23;;;;;;;8.00;3.55;;;20.40;92.80;;;;;;5078400;28;20388;-60
2022/04/29 10:21:15;;;;;;;11.25;3.83;;;20.40;92.80;;;;;;5061995;28;20187;-64
2022/04/29 10:22:29;;;;;;;6.82;3.00;;;20.40;92.90;;;;;;5048806;28;20116;-61
2022/04/29 10:24:56;;;;;;;5.45;3.80;;;20.40;92.80;;;;;;5084507;28;20020;-62
2022/04/29 10:27:23;;;;;;;7.07;3.13;;;20.40;92.80;;;;;;5086769;28;20063;-60
2022/04/29 10:29:50;;;;;;;8.60;3.60;;;20.30;92.90;;;;;;5065768;28;20027;-59
2022/04/29 10:32:17;;;;;;;5.55;3.40;;;20.40;93.00;;;;;;5074627;28;20517;-61
2022/04/29 10:34:45;;;;;;;6.63;3.25;;;20.30;93.00;;;;;;5085674;28;20028;-63
2022/04/29 10:37:15;;;;;;;4.50;3.33;;;20.30;92.90;;;;;;5087594;28;20506;-61
2022/04/29 10:39:43;;;;;;;6.15;3.53;;;20.30;93.10;;;;;;5086097;28;20020;-61
2022/04/29 10:42:11;;;;;;;7.55;3.47;;;20.30;93.20;;;;;;5064009;28;20025;-63
2022/04/29 10:45:02;;;;;;;5.95;3.65;;;20.30;93.10;;;;;;5087120;28;20027;-62
2022/04/29 10:47:41;;;;;;;5.30;3.17;;;20.40;93.00;;;;;;5079400;28;20051;-63
2022/04/29 10:50:31;;;;;;;6.35;3.75;;;20.40;92.90;;;;;;5088435;28;20016;-64
2022/04/29 10:53:06;;;;;;;10.88;4.47;;;20.40;92.90;;;;;;5080146;28;20028;-63
2022/04/29 10:55:33;;;;;;;11.90;4.38;;;20.40;93.10;;;;;;5087410;28;20128;-63
2022/04/29 10:58:05;;;;;;;10.57;3.63;;;20.40;93.10;;;;;;5084932;28;20027;-62
2022/04/29 11:00:33;;;;;;;7.88;3.92;;;20.50;93.00;;;;;;5082127;28;20047;-63
2022/04/29 11:03:37;;;;;;;6.13;3.25;;;20.40;93.00;;;;;;5077009;28;20024;-63
2022/04/29 11:06:09;;;;;;;5.40;3.00;;;20.40;93.00;;;;;;5089004;28;20032;-63
2022/04/29 11:08:36;;;;;;;6.40;3.30;;;20.40;93.00;;;;;;5085261;28;20043;-62
2022/04/29 11:11:03;;;;;;;6.93;3.15;;;20.40;92.90;;;;;;5085565;28;20028;-64
2022/04/29 11:13:34;;;;;;;4.25;2.63;;;20.40;93.00;;;;;;5086921;28;20035;-63
2022/04/29 11:16:09;;;;;;;7.40;2.58;;;20.30;93.10;;;;;;5084420;28;20024;-63
2022/04/29 11:18:36;;;;;;;4.93;2.83;;;20.20;93.10;;;;;;5080506;28;20028;-63
2022/04/29 11:27:00;;;;;;;9.77;3.13;;;20.20;93.30;;;;;;5085354;28;20059;-63
2022/04/29 11:29:27;;;;;;;5.80;2.97;;;20.20;93.40;;;;;;5086333;28;20043;-63
2022/04/29 11:31:56;;;;;;;5.90;3.30;;;20.20;93.40;;;;;;5082853;28;20024;-64
2022/04/29 11:34:24;;;;;;;6.15;2.97;;;20.20;93.30;;;;;;5085774;28;20149;-63
2022/04/29 11:36:56;;;;;;;5.82;2.53;;;20.20;93.40;;;;;;5086841;28;20114;-63
2022/04/29 11:39:24;;;;;;;4.82;2.65;;;20.20;93.50;;;;;;5068633;28;20501;-64
2022/04/29 11:41:58;;;;;;;5.30;3.28;;;20.20;93.50;;;;;;5068010;28;20024;-64
2022/04/29 11:44:34;;;;;;;5.75;2.83;;;20.20;93.50;;;;;;5082584;28;20484;-63
2022/04/29 11:47:02;;;;;;;4.47;2.63;;;20.20;93.50;;;;;;5084554;28;20040;-65
2022/04/29 11:49:33;;;;;;;5.65;2.30;;;20.20;93.50;;;;;;5087115;28;20032;-63
2022/04/29 11:52:34;;;;;;;9.25;2.50;;;20.20;93.60;;;;;;5068856;28;20043;-64
2022/04/29 11:55:12;;;;;;;6.07;2.55;;;20.20;93.70;;;;;;5096719;28;20020;-63
2022/04/29 11:57:54;;;;;;;3.10;2.28;;;20.20;93.70;;;;;;5084981;28;20094;-64
2022/04/29 12:00:27;;;;;;;5.57;2.40;;;20.10;93.60;;;;;;5086667;28;20458;-64
2022/04/29 12:02:55;;;;;;;3.58;2.00;;;20.10;93.60;;;;;;5086107;28;20020;-63
2022/04/29 12:05:28;;;;;;;4.13;2.78;;;20.10;93.70;;;;;;5086707;28;20033;-63
2022/04/29 12:08:00;;;;;;;3.70;2.60;;;20.20;93.60;;;;;;5087837;28;20035;-63
2022/04/29 12:10:31;;;;;;;5.18;2.85;;;20.20;93.60;;;;;;5083668;28;20111;-63
2022/04/29 12:12:59;;;;;;;5.88;2.55;;;20.20;93.50;;;;;;5081874;28;20039;-63
2022/04/29 12:15:35;;;;;;;3.80;2.45;;;20.20;93.60;;;;;;5066375;28;20138;-63
2022/04/29 12:18:07;;;;;;;6.95;2.75;;;20.20;93.70;;;;;;5086648;28;20357;-63
2022/04/29 12:20:34;;;;;;;8.55;3.65;;;20.20;93.60;;;;;;5086065;28;20031;-62
2022/04/29 12:23:19;;;;;;;5.50;2.70;;;20.20;93.60;;;;;;5082602;28;20076;-62
2022/04/29 12:25:48;;;;;;;5.65;3.30;;;20.20;93.60;;;;;;5078518;28;20028;-63
2022/04/29 12:28:27;;;;;;;10.65;3.80;;;20.20;93.50;;;;;;5083486;28;20027;-61
2022/04/29 12:36:57;;;;;;;6.85;2.90;;;20.20;93.40;;;;;;5077606;28;20094;-62
2022/04/29 12:39:25;;;;;;;6.35;3.35;;;20.30;93.30;;;;;;5086095;28;20818;-62
2022/04/29 12:42:17;;;;;;;5.80;2.90;;;20.30;93.30;;;;;;5085100;28;20031;-62
2022/04/29 12:47:43;;;;;;;8.45;2.80;;;20.30;93.00;;;;;;5088045;28;20036;-63
2022/04/29 12:50:39;;;;;;;5.55;2.97;;;20.30;93.00;;;;;;5087488;28;20028;-63
2022/04/29 12:53:13;;;;;;;4.32;2.50;;;20.30;93.00;;;;;;5087567;28;20040;-61
2022/04/29 12:55:44;;;;;;;7.07;2.38;;;20.30;92.90;;;;;;5087811;28;20099;-61
2022/04/29 12:58:18;;;;;;;3.72;2.00;;;20.30;93.00;;;;;;5087878;28;20073;-61
2022/04/29 13:01:03;;;;;;;5.28;2.65;;;20.30;92.80;;;;;;5085698;28;20065;-63
2022/04/29 13:03:31;;;;;;;4.32;2.58;;;20.30;92.90;;;;;;5086126;28;20089;-62
2022/04/29 13:06:01;;;;;;;6.82;2.97;;;20.30;92.90;;;;;;5083415;28;20442;-62
2022/04/29 13:08:29;;;;;;;7.70;3.20;;;20.30;92.80;;;;;;5083724;28;20629;-62
2022/04/29 13:10:57;;;;;;;9.07;3.20;;;20.30;92.70;;;;;;5083590;28;20388;-62
2022/04/29 13:13:26;;;;;;;4.57;2.42;;;20.40;92.70;;;;;;5087555;28;20720;-63
2022/04/29 13:15:54;;;;;;;5.78;2.20;;;20.40;92.80;;;;;;5089689;28;20031;-63
2022/04/29 13:18:22;;;;;;;5.57;2.20;;;20.40;92.60;;;;;;5089242;28;20384;-63
2022/04/29 13:20:55;;;;;;;3.42;2.33;;;20.50;92.50;;;;;;5089537;28;20140;-63
2022/04/29 13:23:22;;;;;;;8.50;2.50;;;20.50;92.60;;;;;;5088381;28;20016;-63
2022/04/29 13:25:50;;;;;;;4.05;2.47;;;20.60;92.20;;;;;;5089149;28;20134;-63
2022/04/29 13:28:18;;;;;;;6.10;2.75;;;20.70;92.00;;;;;;5072014;28;20411;-64
2022/04/29 13:30:46;;;;;;;7.22;3.72;;;20.70;91.70;;;;;;5089646;28;20027;-63
2022/04/29 13:33:13;;;;;;;11.88;5.07;;;20.80;91.70;;;;;;5089283;28;20081;-63
2022/04/29 13:35:40;;;;;;;12.05;4.57;;;20.80;91.60;;;;;;5088488;28;20031;-63
2022/04/29 13:38:09;;;;;;;7.38;3.70;;;20.80;91.80;;;;;;5089839;28;20016;-63
2022/04/29 13:40:37;;;;;;;6.13;2.97;;;20.70;91.80;;;;;;5088724;28;20077;-63
2022/04/29 13:43:04;;;;;;;7.00;3.67;;;20.70;91.80;;;;;;5088824;28;20047;-63
2022/04/29 13:45:32;;;;;;;10.65;5.13;;;20.70;91.80;;;;;;5089402;28;20024;-63
2022/04/29 13:48:00;;;;;;;19.52;6.05;;;20.70;91.90;;;;;;5089128;28;20046;-63
2022/04/29 13:50:27;;;;;;;17.70;5.43;;;20.60;91.90;;;;;;5089517;28;20024;-63
2022/04/29 13:53:09;;;;;;;11.70;5.15;;;20.60;92.10;;;;;;5089563;28;20016;-63
2022/04/29 13:55:37;;;;;;;7.78;3.15;;;20.60;92.10;;;;;;5089924;28;20739;-64
2022/04/29 13:58:05;;;;;;;8.85;3.47;;;20.60;92.10;;;;;;5089570;28;20024;-64
2022/04/29 14:00:33;;;;;;;6.15;3.22;;;20.60;92.20;;;;;;5089070;28;20565;-63
2022/04/29 14:03:00;;;;;;;11.25;4.10;;;20.60;92.10;;;;;;5088127;28;20040;-63
2022/04/29 14:05:29;;;;;;;10.30;4.80;;;20.60;92.10;;;;;;5089160;28;20556;-63
2022/04/29 14:07:57;;;;;;;10.35;3.80;;;20.60;92.10;;;;;;5087836;28;20772;-63
2022/04/29 14:10:24;;;;;;;10.77;4.13;;;20.60;92.20;;;;;;5089079;28;20381;-63
2022/04/29 14:12:51;;;;;;;7.05;3.45;;;20.60;92.20;;;;;;5089305;28;20392;-63
2022/04/29 14:15:18;;;;;;;4.70;3.00;;;20.50;92.20;;;;;;5071106;28;20016;-63
2022/04/29 14:17:46;;;;;;;6.07;2.97;;;20.50;92.40;;;;;;5088933;28;20020;-63
2022/04/29 14:20:13;;;;;;;7.30;3.90;;;20.50;92.40;;;;;;5089207;28;20024;-63
2022/04/29 14:22:41;;;;;;;6.72;4.05;;;20.40;92.50;;;;;;5071388;28;20051;-63
2022/04/29 14:25:11;;;;;;;8.27;3.38;;;20.40;92.60;;;;;;5089407;28;20380;-63
2022/04/29 14:27:47;;;;;;;7.85;3.80;;;20.40;92.60;;;;;;5089428;28;20174;-64
2022/04/29 14:30:14;;;;;;;7.10;4.03;;;20.40;92.80;;;;;;5089136;28;20016;-64
2022/04/29 14:32:41;;;;;;;6.13;3.95;;;20.30;92.80;;;;;;5089214;28;20032;-63
2022/04/29 14:35:10;;;;;;;11.23;3.92;;;20.30;92.80;;;;;;5092041;28;20418;-65
2022/04/29 14:37:38;;;;;;;10.02;3.85;;;20.30;93.00;;;;;;5092049;28;20654;-64
2022/04/29 14:40:06;;;;;;;5.93;3.75;;;20.30;93.00;;;;;;5093219;28;20369;-63
2022/04/29 14:42:33;;;;;;;9.40;3.85;;;20.30;93.00;;;;;;5092533;28;20027;-63
2022/04/29 14:45:02;;;;;;;7.07;4.15;;;20.20;93.10;;;;;;5074411;28;20036;-64
2022/04/29 14:47:33;;;;;;;9.27;3.17;;;20.30;93.00;;;;;;5092293;28;20040;-63